Shattuc, Illinois
Current Conditions -  °F | °C
As of 3:55 PM on Friday 24 Oct 2014 (Local Time) from KENL Reporting Station
Clear Clear  
Wind Chill: 68°   Ceiling: Unl
Heat Index: 68°   Visibility: 10mi
Dew Point: 51°   Wind: 6mph
Humidity: 56%   Direction: 260°W
Pressure: 30.05"   Gusts: NA
Location:  38.61°N, 89.19°W
Report Text: KENL 242055Z AUTO 26005KT 10SM CLR 20/11 A3005 RMK AO2 T01990108
Loading
Personal Weather Stations






























Interactive Weather Map
Tropical Storm Tracking
New forecast layout! Learn more

10-Day Weather Forecast

Advertisements
Track Severe Weather on mobile